createdAt,value
2019-03-10T00:02:10.606Z,100521.61
2019-03-10T00:04:41.731Z,100516.34
2019-03-10T00:07:10.988Z,100509.77
2019-03-10T00:09:42.705Z,100516.25
2019-03-10T00:12:14.369Z,100509.30
2019-03-10T00:14:46.693Z,100502.72
2019-03-10T00:17:18.365Z,100493.97
2019-03-10T00:19:50.031Z,100497.06
2019-03-10T00:22:21.802Z,100497.06
2019-03-10T00:24:53.457Z,100490.55
2019-03-10T00:27:25.108Z,100492.78
2019-03-10T00:29:57.457Z,100485.80
2019-03-10T00:32:29.107Z,100482.80
2019-03-10T00:35:01.379Z,100484.58
2019-03-10T00:37:33.042Z,100476.69
2019-03-10T00:40:58.573Z,100477.91
2019-03-10T00:44:38.564Z,100480.94
2019-03-10T00:48:15.899Z,100480.23
2019-03-10T00:51:44.240Z,100481.31
2019-03-10T00:54:16.127Z,100467.52
2019-03-10T00:56:47.790Z,100458.98
2019-03-10T00:59:20.007Z,100450.23
2019-03-10T01:01:51.734Z,100442.80
2019-03-10T01:04:25.282Z,100441.48
2019-03-10T01:06:58.185Z,100439.25
2019-03-10T01:09:31.911Z,100429.19
2019-03-10T01:12:04.624Z,100427.08
2019-03-10T01:14:36.247Z,100421.30
2019-03-10T01:17:07.938Z,100412.94
2019-03-10T01:19:40.594Z,100426.09
2019-03-10T01:22:13.186Z,100421.69
2019-03-10T01:24:44.983Z,100412.48
2019-03-10T01:27:16.633Z,100401.56
2019-03-10T01:29:48.299Z,100402.41
2019-03-10T01:33:19.237Z,100401.56
2019-03-10T01:35:52.123Z,100397.22
2019-03-10T01:38:24.019Z,100382.05
2019-03-10T01:40:55.710Z,100380.80
2019-03-10T01:43:27.357Z,100370.80
2019-03-10T01:45:59.002Z,100371.66
2019-03-10T01:48:30.599Z,100359.36
2019-03-10T01:51:02.775Z,100345.74
2019-03-10T01:53:35.061Z,100335.61
2019-03-10T01:56:06.682Z,100328.12
2019-03-10T01:58:38.362Z,100321.08
2019-03-10T02:01:09.950Z,100324.08
2019-03-10T02:03:40.811Z,100320.52
2019-03-10T02:06:10.062Z,100311.31
2019-03-10T02:08:42.368Z,100300.33
2019-03-10T02:11:14.048Z,100297.70
2019-03-10T02:13:45.701Z,100279.75
2019-03-10T02:16:17.393Z,100271.86
2019-03-10T02:18:50.240Z,100260.02
2019-03-10T02:21:21.859Z,100242.98
2019-03-10T02:23:55.253Z,100235.02
2019-03-10T02:26:27.458Z,100221.11
2019-03-10T02:28:59.470Z,100212.44
2019-03-10T02:31:31.316Z,100211.19
2019-03-10T02:34:02.988Z,100206.39
2019-03-10T02:36:42.896Z,100200.27
2019-03-10T02:39:17.015Z,100198.89
2019-03-10T02:41:49.412Z,100190.60
2019-03-10T02:44:32.149Z,100169.09
2019-03-10T02:47:11.748Z,100155.87
2019-03-10T02:49:45.654Z,100135.69
2019-03-10T02:52:22.245Z,100122.83
2019-03-10T02:54:57.623Z,100120.05
2019-03-10T02:57:35.488Z,100107.75
2019-03-10T03:00:15.285Z,100102.09
2019-03-10T03:02:46.928Z,100101.17
2019-03-10T03:05:17.825Z,100097.30
2019-03-10T03:07:47.078Z,100100.00
2019-03-10T03:10:18.721Z,100094.84
2019-03-10T03:12:50.997Z,100090.50
2019-03-10T03:15:22.612Z,100089.72
2019-03-10T03:17:55.614Z,100091.95
2019-03-10T03:20:27.234Z,100103.05
2019-03-10T03:22:58.909Z,100096.22
2019-03-10T03:25:30.538Z,100085.48
2019-03-10T03:28:02.741Z,100094.07
2019-03-10T03:30:34.410Z,100090.44
2019-03-10T03:33:06.098Z,100075.36
2019-03-10T03:35:54.211Z,100071.58
2019-03-10T03:38:34.324Z,100066.53
2019-03-10T03:41:10.510Z,100053.63
2019-03-10T03:43:42.508Z,100042.86
2019-03-10T03:46:14.141Z,100034.22
2019-03-10T03:48:45.796Z,100033.05
2019-03-10T03:51:17.579Z,100034.98
2019-03-10T03:53:49.189Z,100021.45
2019-03-10T03:56:20.833Z,100016.30
2019-03-10T03:58:53.065Z,100012.49
2019-03-10T04:01:31.306Z,100013.52
2019-03-10T04:04:03.113Z,100006.63
2019-03-10T04:06:34.803Z,100000.68
2019-03-10T04:09:08.467Z,99990.77
2019-03-10T04:11:40.076Z,99982.98
2019-03-10T04:14:12.244Z,99982.66
2019-03-10T04:16:43.881Z,99970.95
2019-03-10T04:19:15.619Z,99972.72
2019-03-10T04:21:47.229Z,99972.78
2019-03-10T04:24:18.891Z,99957.55
2019-03-10T04:26:50.486Z,99961.66
2019-03-10T04:29:22.684Z,99939.47
2019-03-10T04:31:54.290Z,99938.26
2019-03-10T04:34:25.938Z,99931.47
2019-03-10T04:36:57.616Z,99918.86
2019-03-10T04:39:29.287Z,99909.67
2019-03-10T04:42:00.986Z,99901.86
2019-03-10T04:44:33.253Z,99898.84
2019-03-10T04:47:05.494Z,99885.89
2019-03-10T04:49:37.098Z,99875.45
2019-03-10T04:52:08.756Z,99860.26
2019-03-10T04:55:17.634Z,99849.82
2019-03-10T04:58:01.626Z,99844.18
2019-03-10T05:00:35.283Z,99849.50
2019-03-10T05:03:06.933Z,99839.56
2019-03-10T05:05:39.114Z,99840.41
2019-03-10T05:08:10.991Z,99829.52
2019-03-10T05:10:41.711Z,99833.92
2019-03-10T05:13:13.330Z,99818.23
2019-03-10T05:15:45.521Z,99803.89
2019-03-10T05:18:17.147Z,99803.41
2019-03-10T05:20:49.156Z,99801.17
2019-03-10T05:23:38.983Z,99793.75
2019-03-10T05:26:11.277Z,99783.64
2019-03-10T05:28:55.748Z,99770.44
2019-03-10T05:31:27.705Z,99773.45
2019-03-10T05:33:59.359Z,99756.00
2019-03-10T05:36:31.055Z,99754.30
2019-03-10T05:39:02.676Z,99744.26
2019-03-10T05:41:34.292Z,99755.54
2019-03-10T05:44:06.214Z,99744.11
2019-03-10T05:46:38.574Z,99746.64
2019-03-10T05:49:10.193Z,99741.84
2019-03-10T05:51:42.129Z,99732.66
2019-03-10T05:54:13.798Z,99726.66
2019-03-10T05:56:45.439Z,99731.70
2019-03-10T05:59:17.084Z,99726.13
2019-03-10T06:01:49.191Z,99724.53
2019-03-10T06:04:20.988Z,99716.16
2019-03-10T06:06:52.642Z,99718.33
2019-03-10T06:09:24.305Z,99706.61
2019-03-10T06:11:56.287Z,99698.81
2019-03-10T06:14:27.917Z,99701.13
2019-03-10T06:17:00.208Z,99681.30
2019-03-10T06:19:31.814Z,99678.92
2019-03-10T06:22:03.469Z,99670.30
2019-03-10T06:24:35.127Z,99665.58
2019-03-10T06:27:06.811Z,99664.84
2019-03-10T06:29:38.475Z,99661.36
2019-03-10T06:32:10.535Z,99659.66
2019-03-10T06:34:42.580Z,99654.34
2019-03-10T06:37:14.640Z,99649.38
2019-03-10T06:39:46.312Z,99647.42
2019-03-10T06:42:18.259Z,99640.72
2019-03-10T06:44:49.953Z,99633.59
2019-03-10T06:47:21.607Z,99630.89
2019-03-10T06:49:53.710Z,99619.47
2019-03-10T06:52:26.192Z,99614.22
2019-03-10T06:54:57.979Z,99608.04
2019-03-10T06:57:29.630Z,99604.00
2019-03-10T07:00:01.363Z,99592.50
2019-03-10T07:02:33.011Z,99597.67
2019-03-10T07:05:05.275Z,99597.67
2019-03-10T07:07:36.909Z,99596.82
2019-03-10T07:10:11.174Z,99585.86
2019-03-10T07:12:43.013Z,99583.13
2019-03-10T07:15:16.182Z,99576.80
2019-03-10T07:17:47.826Z,99581.55
2019-03-10T07:20:20.036Z,99577.00
2019-03-10T07:22:51.653Z,99586.70
2019-03-10T07:25:23.267Z,99570.77
2019-03-10T07:28:06.760Z,99577.99
2019-03-10T07:30:52.940Z,99583.94
2019-03-10T07:33:46.483Z,99566.30
2019-03-10T07:36:36.149Z,99570.93
2019-03-10T07:39:22.544Z,99583.33
2019-03-10T07:42:08.697Z,99590.56
2019-03-10T07:44:48.131Z,99575.84
2019-03-10T07:47:38.678Z,99568.55
2019-03-10T07:50:24.805Z,99562.17
2019-03-10T07:53:16.137Z,99563.98
2019-03-10T07:55:56.993Z,99567.66
2019-03-10T07:58:44.206Z,99563.75
2019-03-10T08:01:30.244Z,99556.82
2019-03-10T08:04:12.644Z,99549.31
2019-03-10T08:07:10.727Z,99545.50
2019-03-10T08:09:57.800Z,99553.50
2019-03-10T08:12:48.842Z,99550.59
2019-03-10T08:15:42.553Z,99543.85
2019-03-10T08:18:31.762Z,99546.55
2019-03-10T08:21:25.106Z,99544.22
2019-03-10T08:24:14.368Z,99547.97
2019-03-10T08:27:04.941Z,99538.97
2019-03-10T08:30:04.317Z,99535.13
2019-03-10T08:32:54.073Z,99541.80
2019-03-10T08:35:42.709Z,99534.08
2019-03-10T08:38:32.009Z,99550.13
2019-03-10T08:41:25.859Z,99525.70
2019-03-10T08:44:20.568Z,99541.70
2019-03-10T08:46:58.938Z,99542.34
2019-03-10T08:49:45.415Z,99540.94
2019-03-10T08:52:24.421Z,99533.31
2019-03-10T08:55:07.375Z,99528.80
2019-03-10T08:57:57.839Z,99532.93
2019-03-10T09:00:47.401Z,99535.27
2019-03-10T09:03:29.391Z,99525.59
2019-03-10T09:06:13.684Z,99525.84
2019-03-10T09:09:07.661Z,99520.75
2019-03-10T09:12:10.347Z,99505.25
2019-03-10T09:15:13.274Z,99515.48
2019-03-10T09:17:56.897Z,99502.95
2019-03-10T09:20:38.538Z,99511.05
2019-03-10T09:23:24.371Z,99518.91
2019-03-10T09:26:04.238Z,99508.86
2019-03-10T09:28:50.550Z,99493.98
2019-03-10T09:31:44.162Z,99497.87
2019-03-10T09:34:24.302Z,99494.69
2019-03-10T09:37:06.800Z,99492.90
2019-03-10T09:39:49.195Z,99490.73
2019-03-10T09:42:43.231Z,99471.91
2019-03-10T09:45:40.471Z,99476.80
2019-03-10T09:48:34.017Z,99480.66
2019-03-10T09:51:23.581Z,99482.36
2019-03-10T09:54:13.132Z,99491.37
2019-03-10T09:57:02.590Z,99488.27
2019-03-10T09:59:56.190Z,99484.69
2019-03-10T10:02:50.326Z,99469.80
2019-03-10T10:05:50.152Z,99488.77
2019-03-10T10:08:35.154Z,99493.27
2019-03-10T10:11:21.412Z,99480.72
2019-03-10T10:14:04.846Z,99490.69
2019-03-10T10:16:52.313Z,99485.33
2019-03-10T10:19:30.273Z,99498.13
2019-03-10T10:22:27.355Z,99483.63
2019-03-10T10:25:19.449Z,99479.68
2019-03-10T10:28:28.172Z,99481.63
2019-03-10T10:31:21.287Z,99484.89
2019-03-10T10:34:17.617Z,99471.14
2019-03-10T10:37:14.053Z,99477.64
2019-03-10T10:40:04.621Z,99484.10
2019-03-10T10:43:10.226Z,99471.14
2019-03-10T10:46:00.061Z,99478.52
2019-03-10T10:48:55.812Z,99459.25
2019-03-10T10:51:41.123Z,99465.19
2019-03-10T10:54:31.810Z,99461.06
2019-03-10T10:57:19.237Z,99453.43
2019-03-10T11:05:48.759Z,99425.37
2019-03-10T11:08:48.568Z,99444.77
2019-03-10T11:11:42.240Z,99444.02
2019-03-10T11:14:42.251Z,99445.89
2019-03-10T11:17:34.912Z,99447.38
2019-03-10T11:20:16.669Z,99448.41
2019-03-10T11:22:57.798Z,99410.38
2019-03-10T11:25:37.774Z,99405.81
2019-03-10T11:28:34.611Z,99424.20
2019-03-10T11:31:25.359Z,99431.17
2019-03-10T11:34:16.282Z,99436.95
2019-03-10T11:36:59.758Z,99405.02
2019-03-10T11:39:39.803Z,99406.74
2019-03-10T11:42:30.252Z,99387.91
2019-03-10T11:45:16.493Z,99401.61
2019-03-10T11:48:22.362Z,99401.16
2019-03-10T11:51:09.626Z,99405.14
2019-03-10T11:53:50.554Z,99412.70
2019-03-10T11:56:44.221Z,99424.75
2019-03-10T11:59:27.087Z,99421.77
2019-03-10T12:02:16.199Z,99399.45
2019-03-10T12:05:03.925Z,99381.56
2019-03-10T12:07:55.511Z,99409.67
2019-03-10T12:10:27.692Z,99402.33
2019-03-10T12:12:59.462Z,99397.78
2019-03-10T12:15:31.127Z,99387.80
2019-03-10T12:18:03.284Z,99402.69
2019-03-10T12:20:36.290Z,99407.31
2019-03-10T12:23:08.392Z,99391.98
2019-03-10T12:25:40.469Z,99415.66
2019-03-10T12:28:12.261Z,99421.05
2019-03-10T12:30:44.055Z,99405.80
2019-03-10T12:33:16.297Z,99438.70
2019-03-10T12:35:48.033Z,99453.86
2019-03-10T12:38:19.763Z,99457.49
2019-03-10T12:40:51.838Z,99475.03
2019-03-10T12:43:23.642Z,99454.17
2019-03-10T12:45:55.386Z,99470.76
2019-03-10T12:48:27.387Z,99474.67
2019-03-10T12:50:59.141Z,99479.11
2019-03-10T12:53:30.932Z,99461.29
2019-03-10T12:56:02.723Z,99475.76
2019-03-10T12:58:34.973Z,99467.95
2019-03-10T13:01:06.995Z,99464.38
2019-03-10T13:03:39.051Z,99463.17
2019-03-10T13:06:11.110Z,99464.09
2019-03-10T13:08:42.864Z,99457.73
2019-03-10T13:11:14.652Z,99462.77
2019-03-10T13:13:47.214Z,99439.73
2019-03-10T13:16:18.977Z,99435.53
2019-03-10T13:18:50.742Z,99452.91
2019-03-10T13:21:22.874Z,99431.94
2019-03-10T13:23:54.967Z,99428.91
2019-03-10T13:26:26.836Z,99447.74
2019-03-10T13:28:59.227Z,99440.75
2019-03-10T13:31:31.081Z,99424.56
2019-03-10T13:34:02.832Z,99428.14
2019-03-10T13:36:34.574Z,99435.77
2019-03-10T13:39:08.790Z,99411.09
2019-03-10T13:41:40.510Z,99418.44
2019-03-10T13:44:12.976Z,99421.97
2019-03-10T13:46:44.681Z,99431.61
2019-03-10T13:49:16.233Z,99446.06
2019-03-10T13:51:47.957Z,99426.50
2019-03-10T13:54:19.718Z,99460.49
2019-03-10T13:56:51.478Z,99443.83
2019-03-10T13:59:23.865Z,99436.41
2019-03-10T14:01:55.554Z,99458.05
2019-03-10T14:04:27.379Z,99459.39
2019-03-10T14:06:59.384Z,99480.19
2019-03-10T14:09:31.142Z,99468.80
2019-03-10T14:12:02.904Z,99472.22
2019-03-10T14:14:35.407Z,99471.98
2019-03-10T14:17:07.123Z,99495.92
2019-03-10T14:19:38.835Z,99482.94
2019-03-10T14:22:10.524Z,99501.00
2019-03-10T14:24:42.211Z,99505.36
2019-03-10T14:27:13.969Z,99491.31
2019-03-10T14:29:45.730Z,99505.61
2019-03-10T14:32:18.430Z,99489.05
2019-03-10T14:34:50.232Z,99518.13
2019-03-10T14:37:22.136Z,99497.92
2019-03-10T14:39:53.876Z,99517.48
2019-03-10T14:42:25.788Z,99522.17
2019-03-10T14:44:57.533Z,99536.58
2019-03-10T14:47:30.073Z,99551.33
2019-03-10T14:50:01.995Z,99555.90
2019-03-10T14:52:34.028Z,99554.20
2019-03-10T14:55:06.354Z,99570.17
2019-03-10T14:57:38.139Z,99575.08
2019-03-10T15:00:17.387Z,99585.05
2019-03-10T15:02:49.750Z,99587.72
2019-03-10T15:05:21.922Z,99604.37
2019-03-10T15:07:53.646Z,99596.96
2019-03-10T15:10:25.561Z,99599.33
2019-03-10T15:12:57.352Z,99621.13
2019-03-10T15:15:29.342Z,99643.73
2019-03-10T15:18:02.979Z,99646.14
2019-03-10T15:20:35.042Z,99643.50
2019-03-10T15:23:06.827Z,99667.36
2019-03-10T15:25:38.851Z,99671.60
2019-03-10T15:28:10.569Z,99659.39
2019-03-10T15:30:42.290Z,99683.33
2019-03-10T15:33:15.076Z,99691.81
2019-03-10T15:35:46.860Z,99694.30
2019-03-10T15:38:18.697Z,99682.14
2019-03-10T15:40:50.408Z,99692.55
2019-03-10T15:43:22.213Z,99717.47
2019-03-10T15:45:53.921Z,99719.11
2019-03-10T15:48:40.459Z,99741.20
2019-03-10T15:51:12.302Z,99728.31
2019-03-10T15:53:44.314Z,99728.71
2019-03-10T15:56:16.511Z,99747.49
2019-03-10T15:58:48.594Z,99739.41
2019-03-10T16:01:20.546Z,99776.19
2019-03-10T16:03:53.072Z,99783.47
2019-03-10T16:06:25.953Z,99815.02
2019-03-10T16:08:57.864Z,99812.38
2019-03-10T16:11:29.808Z,99798.94
2019-03-10T16:14:01.625Z,99804.05
2019-03-10T16:16:34.528Z,99825.52
2019-03-10T16:19:07.744Z,99844.84
2019-03-10T16:21:39.875Z,99854.61
2019-03-10T16:24:11.732Z,99863.85
2019-03-10T16:26:43.677Z,99872.67
2019-03-10T16:29:15.691Z,99873.62
2019-03-10T16:31:47.607Z,99899.94
2019-03-10T16:34:19.483Z,99901.06
2019-03-10T16:36:51.854Z,99900.48
2019-03-10T16:39:23.732Z,99893.84
2019-03-10T16:41:55.639Z,99901.27
2019-03-10T16:44:27.433Z,99906.89
2019-03-10T16:46:59.356Z,99918.23
2019-03-10T16:49:31.295Z,99932.98
2019-03-10T16:52:03.408Z,99946.41
2019-03-10T16:54:35.580Z,99933.41
2019-03-10T16:57:07.935Z,99933.52
2019-03-10T16:59:40.043Z,99951.55
2019-03-10T17:02:12.676Z,99942.81
2019-03-10T17:04:44.521Z,99958.22
2019-03-10T17:07:16.813Z,99963.55
2019-03-10T17:09:48.708Z,99951.43
2019-03-10T17:12:20.921Z,99976.23
2019-03-10T17:14:52.676Z,99973.01
2019-03-10T17:17:24.581Z,99970.20
2019-03-10T17:19:56.289Z,99984.28
2019-03-10T17:22:28.288Z,99984.00
2019-03-10T17:25:00.013Z,99973.94
2019-03-10T17:27:32.247Z,99991.12
2019-03-10T17:30:04.197Z,99992.89
2019-03-10T17:32:37.414Z,99994.86
2019-03-10T17:35:09.517Z,99999.73
2019-03-10T17:37:41.310Z,99992.38
2019-03-10T17:40:16.280Z,100007.42
2019-03-10T17:42:48.674Z,100007.20
2019-03-10T17:45:20.839Z,100024.06
2019-03-10T17:47:52.748Z,100041.16
2019-03-10T17:50:24.826Z,100068.72
2019-03-10T17:52:56.830Z,100084.58
2019-03-10T17:55:28.673Z,100105.80
2019-03-10T17:58:00.463Z,100107.19
2019-03-10T18:00:33.628Z,100125.60
2019-03-10T18:03:05.345Z,100165.87
2019-03-10T18:05:42.214Z,100177.00
2019-03-10T18:08:14.077Z,100189.60
2019-03-10T18:10:46.199Z,100200.91
2019-03-10T18:13:18.019Z,100197.55
2019-03-10T18:15:50.373Z,100225.64
2019-03-10T18:18:22.141Z,100233.45
2019-03-10T18:20:53.970Z,100238.06
2019-03-10T18:23:25.739Z,100249.83
2019-03-10T18:25:57.628Z,100264.70
2019-03-10T18:28:29.588Z,100272.92
2019-03-10T18:31:01.823Z,100286.01
2019-03-10T18:33:33.662Z,100311.17
2019-03-10T18:36:05.502Z,100308.16
2019-03-10T18:38:37.365Z,100308.16
2019-03-10T18:41:09.260Z,100315.11
2019-03-10T18:43:41.147Z,100302.66
2019-03-10T18:46:13.667Z,100331.00
2019-03-10T18:48:45.726Z,100329.94
2019-03-10T18:51:17.529Z,100332.75
2019-03-10T18:53:49.693Z,100332.91
2019-03-10T18:56:21.940Z,100342.17
2019-03-10T18:58:53.777Z,100334.36
2019-03-10T19:01:26.200Z,100345.89
2019-03-10T19:03:58.212Z,100349.88
2019-03-10T19:06:30.607Z,100342.15
2019-03-10T19:09:02.637Z,100353.95
2019-03-10T19:11:34.523Z,100353.65
2019-03-10T19:14:06.713Z,100362.50
2019-03-10T19:16:38.870Z,100364.86
2019-03-10T19:19:11.170Z,100370.66
2019-03-10T19:21:43.040Z,100376.03
2019-03-10T19:24:14.901Z,100393.58
2019-03-10T19:26:46.773Z,100400.76
2019-03-10T19:29:18.726Z,100400.94
2019-03-10T19:31:51.552Z,100391.89
2019-03-10T19:34:23.365Z,100405.95
2019-03-10T19:36:57.325Z,100412.63
2019-03-10T19:39:28.666Z,100425.73
2019-03-10T19:42:00.532Z,100417.92
2019-03-10T19:44:32.328Z,100415.80
2019-03-10T19:47:04.036Z,100425.95
2019-03-10T19:49:36.258Z,100442.25
2019-03-10T19:52:08.192Z,100443.20
2019-03-10T19:54:40.007Z,100454.14
2019-03-10T19:57:11.827Z,100460.77
2019-03-10T19:59:43.662Z,100466.01
2019-03-10T20:02:15.510Z,100466.46
2019-03-10T20:04:47.716Z,100477.48
2019-03-10T20:07:19.903Z,100491.16
2019-03-10T20:09:51.738Z,100493.33
2019-03-10T20:12:23.718Z,100502.66
2019-03-10T20:14:55.633Z,100518.91
2019-03-10T20:17:27.430Z,100522.10
2019-03-10T20:19:59.764Z,100516.61
2019-03-10T20:22:31.779Z,100530.36
2019-03-10T20:25:03.664Z,100538.78
2019-03-10T20:27:35.571Z,100544.92
2019-03-10T20:30:08.912Z,100561.94
2019-03-10T20:32:40.769Z,100550.27
2019-03-10T20:35:13.373Z,100565.98
2019-03-10T20:37:45.281Z,100568.19
2019-03-10T20:40:17.773Z,100569.95
2019-03-10T20:42:49.874Z,100576.20
2019-03-10T20:45:24.155Z,100560.53
2019-03-10T20:47:56.543Z,100572.31
2019-03-10T20:55:31.505Z,100596.00
2019-03-10T20:58:03.520Z,100593.56
2019-03-10T21:00:35.337Z,100598.53
2019-03-10T21:03:07.049Z,100608.25
2019-03-10T21:05:39.344Z,100610.05
2019-03-10T21:08:11.061Z,100621.48
2019-03-10T21:10:44.049Z,100629.92
2019-03-10T21:13:15.791Z,100627.91
2019-03-10T21:15:47.751Z,100633.73
2019-03-10T21:18:19.528Z,100645.19
2019-03-10T21:20:51.412Z,100648.43
2019-03-10T21:23:23.201Z,100644.57
2019-03-10T21:25:55.257Z,100647.63
2019-03-10T21:28:27.034Z,100651.08
2019-03-10T21:30:58.807Z,100657.62
2019-03-10T21:33:30.608Z,100659.78
2019-03-10T21:36:02.505Z,100656.27
2019-03-10T21:38:34.242Z,100661.92
2019-03-10T21:41:13.749Z,100665.88
2019-03-10T21:43:39.461Z,100672.90
2019-03-10T21:46:11.280Z,100661.67
2019-03-10T21:48:42.948Z,100663.44
2019-03-10T21:51:14.751Z,100666.88
2019-03-10T21:53:46.458Z,100671.59
2019-03-10T21:56:18.266Z,100677.97
2019-03-10T21:58:49.972Z,100679.59
2019-03-10T22:01:21.677Z,100685.95
2019-03-10T22:03:53.569Z,100679.79
2019-03-10T22:06:25.692Z,100682.75
2019-03-10T22:08:57.491Z,100692.77
2019-03-10T22:11:29.141Z,100690.26
2019-03-10T22:14:01.198Z,100684.23
2019-03-10T22:16:32.887Z,100698.73
2019-03-10T22:19:04.569Z,100700.62
2019-03-10T22:21:36.301Z,100709.84
2019-03-10T22:24:08.132Z,100716.52
2019-03-10T22:26:39.958Z,100723.59
2019-03-10T22:29:11.711Z,100720.22
2019-03-10T22:31:43.485Z,100731.19
2019-03-10T22:34:15.174Z,100746.98
2019-03-10T22:36:47.475Z,100737.09
2019-03-10T22:39:19.216Z,100742.86
2019-03-10T22:41:51.211Z,100744.20
2019-03-10T22:44:22.962Z,100738.11
2019-03-10T22:46:54.648Z,100743.76
2019-03-10T22:49:26.393Z,100746.34
2019-03-10T22:51:57.997Z,100745.48
2019-03-10T22:54:29.762Z,100751.22
2019-03-10T22:57:01.366Z,100759.19
2019-03-10T22:59:33.030Z,100748.85
2019-03-10T23:02:04.845Z,100757.17
2019-03-10T23:04:36.478Z,100760.32
2019-03-10T23:07:09.335Z,100757.38
2019-03-10T23:09:41.208Z,100753.48
2019-03-10T23:12:12.876Z,100750.97
2019-03-10T23:14:44.779Z,100760.23
2019-03-10T23:17:16.432Z,100763.41
2019-03-10T23:19:48.792Z,100761.80
2019-03-10T23:22:20.445Z,100771.42
2019-03-10T23:24:52.780Z,100782.77
2019-03-10T23:27:24.366Z,100776.23
2019-03-10T23:29:56.119Z,100772.40
2019-03-10T23:32:27.688Z,100775.98
2019-03-10T23:34:59.350Z,100776.91
2019-03-10T23:37:31.089Z,100775.29
2019-03-10T23:40:03.431Z,100776.13
2019-03-10T23:42:35.054Z,100769.64
2019-03-10T23:45:08.259Z,100769.28
2019-03-10T23:47:39.850Z,100769.34
2019-03-10T23:50:12.031Z,100765.95
2019-03-10T23:52:43.658Z,100767.34
2019-03-10T23:55:16.111Z,100766.53
2019-03-10T23:57:48.529Z,100765.30
